UAL Europe — MKVS6 — position and weather

sailwx.info

Track history (hours):
 
Tides and Currents Weather Stations Pressure Air Temp Water Temp Dewpoint Dewpoint Depression Visibility Wind Speed Wind Dir Waves Ship Positions

UAL Europe

Last reported at 2015-Apr-20 23:24 UTC. Time now 2015-Apr-27 22:12 UTC.
Position N 07°59' W 015°13'.

Length 145 m; draft 7.2 m.

Type: Ship (hazmat cat A). MMSI: 235010190.

Date/timePositionNaut miles runAvg speedWind from/ knotsBaromVisibWave heightAir tempDewpointWater temp
2015-Apr-20 23:24N 07°59' W 015°13'1113.4
2015-Apr-20 22:33N 08°08' W 015°21'1413.7
2015-Apr-20 21:31N 08°19' W 015°29'2713.9
2015-Apr-20 19:33N 08°40' W 015°47'1413.7
2015-Apr-20 18:34N 08°51' W 015°55'1413.5
2015-Apr-20 17:33N 09°02' W 016°04'  
2015-Apr-11 20:28N 50°18' W 001°15'4514.5
2015-Apr-11 17:24N 50°30' W 000°07'1213.4
2015-Apr-11 16:31N 50°32' E 000°11'1212.8
2015-Apr-11 15:33N 50°36' E 000°29'1212.0
2015-Apr-11 14:33N 50°43' E 000°45'1211.9
2015-Apr-11 13:33N 50°50' E 001°00'1312.7
2015-Apr-11 12:33N 50°58' E 001°16'1414.1
2015-Apr-11 11:33N 51°07' E 001°33'1413.8
2015-Apr-11 10:34N 51°17' E 001°48'1313.0
2015-Apr-11 09:34N 51°28' E 001°59'1212.4
2015-Apr-11 08:34N 51°37' E 002°12'4210.6
2015-Apr-11 04:33N 52°20' E 002°15'1312.8
2015-Apr-11 03:34N 52°32' E 002°08'1313.3
2015-Apr-11 02:33N 52°44' E 002°00'1413.9
2015-Apr-11 01:33N 52°52' E 001°41'1514.6
2015-Apr-11 00:34N 53°04' E 001°26'1514.5
2015-Apr-10 23:33N 53°16' E 001°13'  
Track history (hours):
 
Tides and Currents Weather Stations Pressure Air Temp Water Temp Dewpoint Dewpoint Depression Visibility Wind Speed Wind Dir Waves Ship Positions

UAL Europe

Last reported at 2015-Apr-20 23:24 UTC. Time now 2015-Apr-27 22:12 UTC.
Position N 07°59' W 015°13'.

Length 145 m; draft 7.2 m.

Type: Ship (hazmat cat A). MMSI: 235010190.

Date/timePositionNaut miles runAvg speedWind from/ knotsBaromVisibWave heightAir tempDewpointWater temp
2015-Apr-20 23:24N 07°59' W 015°13'1113.4
2015-Apr-20 22:33N 08°08' W 015°21'1413.7
2015-Apr-20 21:31N 08°19' W 015°29'2713.9
2015-Apr-20 19:33N 08°40' W 015°47'1413.7
2015-Apr-20 18:34N 08°51' W 015°55'1413.5
2015-Apr-20 17:33N 09°02' W 016°04'  
2015-Apr-11 20:28N 50°18' W 001°15'4514.5
2015-Apr-11 17:24N 50°30' W 000°07'1213.4
2015-Apr-11 16:31N 50°32' E 000°11'1212.8
2015-Apr-11 15:33N 50°36' E 000°29'1212.0
2015-Apr-11 14:33N 50°43' E 000°45'1211.9
2015-Apr-11 13:33N 50°50' E 001°00'1312.7
2015-Apr-11 12:33N 50°58' E 001°16'1414.1
2015-Apr-11 11:33N 51°07' E 001°33'1413.8
2015-Apr-11 10:34N 51°17' E 001°48'1313.0
2015-Apr-11 09:34N 51°28' E 001°59'1212.4
2015-Apr-11 08:34N 51°37' E 002°12'4210.6
2015-Apr-11 04:33N 52°20' E 002°15'1312.8
2015-Apr-11 03:34N 52°32' E 002°08'1313.3
2015-Apr-11 02:33N 52°44' E 002°00'1413.9
2015-Apr-11 01:33N 52°52' E 001°41'1514.6
2015-Apr-11 00:34N 53°04' E 001°26'1514.5
2015-Apr-10 23:33N 53°16' E 001°13'  

Dump ship's entire track history